Time;durP1;ratioP1;P1;durP2;ratioP2;P2;SDS_P1;SDS_P2;PMS_P1;PMS_P2;Temp;Humidity;BMP_temperature;BMP_pressure;BME280_temperature;BME280_humidity;BME280_pressure;Samples;Min_cycle;Max_cycle;Signal;HPM_P1;HPM_P2
2021/05/09 00:03:21;;;;;;;;;;;;;;;;;;;;;
2021/05/09 00:10:07;;;;;;;;;;;;;;;;;;;;;
2021/05/09 00:13:42;;;;;;;2.75;2.30;;;8.90;99.90;;;;;;5852721;24;20105;-91
2021/05/09 00:16:43;;;;;;;;;;;;;;;;;;;;;
2021/05/09 00:19:49;;;;;;;5.65;2.50;;;8.70;99.90;;;;;;5800615;24;20073;-92
2021/05/09 00:22:49;;;;;;;4.05;2.88;;;8.60;99.90;;;;;;5862506;24;20334;-92
2021/05/09 00:26:10;;;;;;;;;;;;;;;;;;;;;
2021/05/09 00:29:40;;;;;;;;;;;;;;;;;;;;;
2021/05/09 00:32:50;;;;;;;5.13;3.00;;;8.50;99.90;;;;;;5926412;24;20097;-91
2021/05/09 00:36:04;;;;;;;;;;;;;;;;;;;;;
2021/05/09 00:39:18;;;;;;;;;;;;;;;;;;;;;
2021/05/09 00:42:46;;;;;;;5.72;2.75;;;8.40;99.90;;;;;;5779134;24;20178;-92
2021/05/09 00:46:02;;;;;;;;;;;;;;;;;;;;;
2021/05/09 00:49:02;;;;;;;;;;;;;;;;;;;;;
2021/05/09 00:52:13;;;;;;;;;;;;;;;;;;;;;
2021/05/09 00:55:07;;;;;;;;;;;;;;;;;;;;;
2021/05/09 00:58:04;;;;;;;;;;;;;;;;;;;;;
2021/05/09 01:00:46;;;;;;;;;;;;;;;;;;;;;
2021/05/09 01:04:32;;;;;;;;;;;;;;;;;;;;;
2021/05/09 01:08:03;;;;;;;;;;;;;;;;;;;;;
2021/05/09 01:15:25;;;;;;;;;;;;;;;;;;;;;
2021/05/09 01:18:50;;;;;;;3.58;2.50;;;8.50;99.90;;;;;;5892395;24;20033;-92
2021/05/09 01:25:28;;;;;;;2.88;2.60;;;8.50;99.90;;;;;;5905746;24;20075;-91
2021/05/09 01:28:55;;;;;;;2.58;2.20;;;8.40;99.90;;;;;;5913676;24;20037;-91
2021/05/09 01:31:34;;;;;;;3.83;2.10;;;8.50;99.90;;;;;;5901815;24;20036;-92
2021/05/09 01:34:46;;;;;;;5.03;2.10;;;8.50;99.90;;;;;;5899567;24;20017;-92
2021/05/09 01:41:24;;;;;;;;;;;;;;;;;;;;;
2021/05/09 01:44:17;;;;;;;4.47;2.30;;;8.70;99.90;;;;;;5898600;24;20025;-92
2021/05/09 01:47:37;;;;;;;;;;;;;;;;;;;;;
2021/05/09 01:51:03;;;;;;;;;;;;;;;;;;;;;
2021/05/09 01:54:34;;;;;;;;;;;;;;;;;;;;;
2021/05/09 01:57:36;;;;;;;;;;;;;;;;;;;;;
2021/05/09 02:00:52;;;;;;;;;;;;;;;;;;;;;
2021/05/09 02:03:59;;;;;;;;;;;;;;;;;;;;;
2021/05/09 02:10:42;;;;;;;;;;;;;;;;;;;;;
2021/05/09 02:13:50;;;;;;;;;;;;;;;;;;;;;
2021/05/09 02:16:52;;;;;;;;;;;;;;;;;;;;;
2021/05/09 02:20:12;;;;;;;;;;;;;;;;;;;;;
2021/05/09 02:22:47;;;;;;;3.90;3.30;;;8.10;99.90;;;;;;5925519;24;20032;-92
2021/05/09 02:25:40;;;;;;;5.63;2.95;;;8.10;99.90;;;;;;5925307;24;20453;-92
2021/05/09 02:32:11;;;;;;;;;;;;;;;;;;;;;
2021/05/09 02:38:24;;;;;;;4.53;3.00;;;8.10;99.90;;;;;;5964736;24;20088;-92
2021/05/09 02:41:32;;;;;;;;;;;;;;;;;;;;;
2021/05/09 02:44:28;;;;;;;4.57;2.90;;;8.10;99.90;;;;;;5977472;24;20345;-92
2021/05/09 02:47:32;;;;;;;3.28;3.00;;;8.10;99.90;;;;;;5916800;24;20035;-91
2021/05/09 02:54:03;;;;;;;5.35;2.90;;;8.20;99.90;;;;;;5892901;24;20026;-91
2021/05/09 02:57:27;;;;;;;;;;;;;;;;;;;;;
2021/05/09 03:00:12;;;;;;;3.15;2.85;;;8.30;99.90;;;;;;5882676;24;20032;-92
2021/05/09 03:03:55;;;;;;;;;;;;;;;;;;;;;
2021/05/09 03:06:41;;;;;;;2.75;2.55;;;8.40;99.90;;;;;;6022644;23;20028;-90
2021/05/09 03:09:45;;;;;;;3.85;2.65;;;8.40;99.90;;;;;;6155792;23;20503;-92
2021/05/09 03:12:52;;;;;;;4.88;2.35;;;8.50;99.90;;;;;;6038090;23;20027;-91
2021/05/09 03:15:43;;;;;;;2.30;2.10;;;8.50;99.90;;;;;;6037978;23;20091;-91
2021/05/09 03:18:35;;;;;;;;;;;;;;;;;;;;;
2021/05/09 03:21:35;;;;;;;;;;;;;;;;;;;;;
2021/05/09 03:24:26;;;;;;;5.38;2.40;;;8.80;99.90;;;;;;6047641;23;20038;-91
2021/05/09 03:27:21;;;;;;;2.30;2.10;;;8.80;99.90;;;;;;5990885;23;20305;-91
2021/05/09 03:30:08;;;;;;;;;;;;;;;;;;;;;
2021/05/09 03:37:17;;;;;;;;;;;;;;;;;;;;;
2021/05/09 03:40:30;;;;;;;3.55;2.58;;;8.60;99.90;;;;;;5977694;23;20028;-91
2021/05/09 03:43:45;;;;;;;4.18;2.90;;;8.60;99.90;;;;;;5919646;24;20060;-91
2021/05/09 03:49:55;;;;;;;4.85;2.47;;;8.40;99.90;;;;;;5975956;23;20348;-91
2021/05/09 03:53:41;;;;;;;;;;;;;;;;;;;;;
2021/05/09 03:56:50;;;;;;;4.70;2.40;;;8.30;99.90;;;;;;5846119;24;20038;-92
2021/05/09 04:00:10;;;;;;;;;;;;;;;;;;;;;
2021/05/09 04:06:24;;;;;;;;;;;;;;;;;;;;;
2021/05/09 04:09:11;;;;;;;;;;;;;;;;;;;;;
2021/05/09 04:12:11;;;;;;;;;;;;;;;;;;;;;
2021/05/09 04:15:31;;;;;;;;;;;;;;;;;;;;;
2021/05/09 04:22:01;;;;;;;;;;;;;;;;;;;;;
2021/05/09 04:25:04;;;;;;;3.35;2.40;;;8.80;99.90;;;;;;5927385;24;20033;-92
2021/05/09 04:27:57;;;;;;;5.40;2.55;;;8.90;99.90;;;;;;5927487;24;20054;-92
2021/05/09 04:34:10;;;;;;;;;;;;;;;;;;;;;
2021/05/09 04:37:45;;;;;;;;;;;;;;;;;;;;;
2021/05/09 04:40:52;;;;;;;3.42;2.65;;;9.00;99.90;;;;;;5954774;24;20025;-91
2021/05/09 04:47:31;;;;;;;4.70;2.88;;;9.00;99.90;;;;;;6036630;23;20249;-91
2021/05/09 04:49:57;;;;;;;3.15;2.40;;;9.10;99.90;;;;;;6038190;23;20037;-90
2021/05/09 04:52:26;;;;;;;3.67;2.70;;;9.10;99.90;;;;;;6120257;23;20132;-91
2021/05/09 04:55:35;;;;;;;3.92;2.75;;;9.10;99.90;;;;;;6093044;23;20084;-91
2021/05/09 04:58:02;;;;;;;3.95;2.22;;;9.20;99.90;;;;;;6101045;23;20406;-90
2021/05/09 05:00:57;;;;;;;5.45;3.55;;;9.40;99.90;;;;;;6156086;23;20031;-91
2021/05/09 05:03:47;;;;;;;;;;;;;;;;;;;;;
2021/05/09 05:06:47;;;;;;;;;;;;;;;;;;;;;
2021/05/09 05:09:50;;;;;;;3.97;2.40;;;9.90;99.90;;;;;;6249334;22;20020;-90
2021/05/09 05:17:14;;;;;;;;;;;;;;;;;;;;;
2021/05/09 05:31:50;;;;;;;;;;;;;;;;;;;;;
2021/05/09 05:35:34;;;;;;;2.00;1.80;;;11.50;99.90;;;;;;5959378;24;20036;-92
2021/05/09 06:08:15;;;;;;;;;;;;;;;;;;;;;
2021/05/09 06:43:11;;;;;;;1.75;1.40;;;17.50;91.80;;;;;;5916150;24;20047;-92
2021/05/09 06:45:37;;;;;;;1.65;1.40;;;17.90;90.40;;;;;;5924337;24;20016;-91
2021/05/09 07:12:10;;;;;;;1.58;0.75;;;21.40;56.80;;;;;;6021538;22;5111416;-90
2021/05/09 07:19:18;;;;;;;;;;;;;;;;;;;;;
2021/05/09 07:22:42;;;;;;;;;;;;;;;;;;;;;
2021/05/09 07:26:45;;;;;;;1.25;0.88;;;23.20;49.90;;;;;;5886677;24;20381;-91
2021/05/09 07:35:25;;;;;;;3.33;0.70;;;24.60;47.80;;;;;;5941545;23;20015;-89
2021/05/09 07:37:54;;;;;;;0.75;0.60;;;25.20;49.00;;;;;;6059433;23;20023;-90
2021/05/09 07:40:58;;;;;;;1.08;0.65;;;25.50;48.30;;;;;;6144102;23;20172;-91
2021/05/09 07:47:25;;;;;;;5.07;0.73;;;25.70;43.70;;;;;;6038404;23;20343;-89
2021/05/09 07:50:31;;;;;;;;;;;;;;;;;;;;;
2021/05/09 07:52:59;;;;;;;1.85;0.70;;;25.20;43.60;;;;;;6057648;23;20050;-91
2021/05/09 07:55:28;;;;;;;2.05;0.60;;;24.90;43.30;;;;;;6051244;23;20114;-89
2021/05/09 07:57:56;;;;;;;1.05;0.65;;;24.80;42.20;;;;;;6059874;23;20038;-90
2021/05/09 08:00:25;;;;;;;1.08;0.68;;;24.70;42.90;;;;;;6120996;23;20140;-87
2021/05/09 08:02:52;;;;;;;1.38;0.60;;;24.70;41.80;;;;;;6153723;23;20076;-90
2021/05/09 08:05:25;;;;;;;3.45;0.77;;;24.90;42.50;;;;;;6182754;23;20022;-91
2021/05/09 08:08:26;;;;;;;2.67;0.80;;;25.00;41.40;;;;;;6148316;23;20077;-90
2021/05/09 08:11:53;;;;;;;;;;;;;;;;;;;;;
2021/05/09 08:14:29;;;;;;;1.55;0.80;;;25.30;42.70;;;;;;6127407;23;20065;-90
2021/05/09 08:20:30;;;;;;;1.10;0.70;;;26.50;40.80;;;;;;5993058;23;20129;-90
2021/05/09 08:23:44;;;;;;;0.85;0.57;;;27.10;40.30;;;;;;6075251;23;20018;-89
2021/05/09 08:26:39;;;;;;;0.80;0.55;;;27.30;36.70;;;;;;5991017;24;20048;-89
2021/05/09 08:29:41;;;;;;;1.13;0.90;;;27.30;38.00;;;;;;5969691;24;20361;-90
2021/05/09 08:32:19;;;;;;;2.25;0.82;;;27.70;37.00;;;;;;5986376;24;20456;-90
2021/05/09 08:34:51;;;;;;;2.05;0.88;;;27.60;36.10;;;;;;5985801;24;20035;-90
2021/05/09 08:37:24;;;;;;;0.88;0.57;;;27.60;36.30;;;;;;5984013;24;20092;-91
2021/05/09 08:40:01;;;;;;;1.40;0.85;;;27.60;36.40;;;;;;6009330;23;20072;-91
2021/05/09 08:42:36;;;;;;;1.88;0.90;;;27.40;36.40;;;;;;6048096;23;20027;-90
2021/05/09 08:45:06;;;;;;;1.00;0.70;;;27.20;35.10;;;;;;6047101;23;20105;-90
2021/05/09 08:47:41;;;;;;;0.77;0.68;;;27.40;36.60;;;;;;6069406;23;20027;-90
2021/05/09 08:53:50;;;;;;;;;;;;;;;;;;;;;
2021/05/09 08:56:41;;;;;;;3.38;0.93;;;28.40;35.10;;;;;;6218065;23;20021;-91
2021/05/09 08:59:10;;;;;;;1.35;0.50;;;28.50;33.50;;;;;;6218871;23;20021;-88
2021/05/09 09:01:40;;;;;;;1.05;0.60;;;28.10;34.50;;;;;;6218826;23;20127;-89
2021/05/09 09:04:07;;;;;;;1.65;0.63;;;28.30;34.10;;;;;;6219529;23;20032;-91
2021/05/09 09:07:53;;;;;;;2.10;0.77;;;28.10;33.80;;;;;;6220162;23;20016;-91
2021/05/09 09:10:42;;;;;;;1.42;0.50;;;28.40;34.40;;;;;;6219681;23;20074;-88
2021/05/09 09:13:37;;;;;;;3.15;0.57;;;28.40;33.00;;;;;;6219115;23;20089;-89
2021/05/09 09:16:53;;;;;;;1.88;0.65;;;28.50;32.70;;;;;;6218696;23;20086;-88
2021/05/09 09:20:06;;;;;;;2.30;0.70;;;28.30;33.30;;;;;;6211711;23;20048;-90
2021/05/09 09:22:59;;;;;;;;;;;28.10;32.80;;;;;;6192678;23;20021;-89
2021/05/09 09:25:34;;;;;;;1.88;0.50;;;28.20;32.50;;;;;;6217355;23;19927;-89
2021/05/09 09:28:03;;;;;;;2.63;0.75;;;28.30;32.80;;;;;;6218488;23;20033;-88
2021/05/09 09:30:53;;;;;;;2.55;0.65;;;28.60;33.00;;;;;;6224843;23;20033;-89
2021/05/09 09:33:21;;;;;;;;;;;28.90;32.30;;;;;;6216899;23;20101;-89
2021/05/09 09:35:54;;;;;;;2.03;0.70;;;29.20;31.30;;;;;;6216064;23;20007;-88
2021/05/09 09:38:30;;;;;;;1.58;0.70;;;29.10;31.00;;;;;;6217115;23;20094;-86
2021/05/09 09:41:12;;;;;;;1.50;0.60;;;29.40;30.70;;;;;;6217719;23;20021;-89
2021/05/09 09:43:41;;;;;;;1.40;0.70;;;29.60;30.50;;;;;;6218548;23;20099;-88
2021/05/09 09:46:28;;;;;;;1.05;0.80;;;29.90;30.30;;;;;;6214861;23;20100;-89
2021/05/09 09:48:58;;;;;;;0.50;0.50;;;29.80;31.00;;;;;;6216596;23;20024;-88
2021/05/09 09:51:25;;;;;;;3.05;1.00;;;30.00;30.40;;;;;;6215746;23;20301;-88
2021/05/09 09:53:53;;;;;;;1.85;0.80;;;30.40;30.80;;;;;;6218761;23;20086;-89
2021/05/09 09:56:24;;;;;;;2.53;0.77;;;30.70;29.70;;;;;;6219474;23;20021;-89
2021/05/09 09:59:04;;;;;;;3.80;0.70;;;30.70;29.30;;;;;;6219093;23;20027;-88
2021/05/09 10:01:35;;;;;;;1.02;0.68;;;30.40;29.50;;;;;;6219173;23;20030;-87
2021/05/09 10:04:05;;;;;;;1.67;0.50;;;30.30;29.00;;;;;;6218709;23;20044;-88
2021/05/09 10:06:32;;;;;;;1.38;0.60;;;30.00;29.00;;;;;;6218354;23;20017;-88
2021/05/09 10:09:00;;;;;;;2.58;0.60;;;30.20;28.50;;;;;;6217062;23;20100;-88
2021/05/09 10:11:28;;;;;;;1.20;0.52;;;30.40;28.90;;;;;;6224829;23;20031;-89
2021/05/09 10:13:58;;;;;;;0.95;0.57;;;30.80;28.90;;;;;;6228279;23;20035;-88
2021/05/09 10:16:31;;;;;;;1.00;0.60;;;31.30;29.40;;;;;;6231169;23;20119;-88
2021/05/09 10:19:13;;;;;;;1.10;0.70;;;31.70;29.20;;;;;;6235680;23;20072;-90
2021/05/09 10:21:42;;;;;;;1.90;0.70;;;31.20;28.20;;;;;;6233316;23;20111;-88
2021/05/09 10:24:18;;;;;;;4.88;0.55;;;30.70;29.80;;;;;;6236901;23;20020;-90
2021/05/09 10:27:04;;;;;;;1.02;0.40;;;30.80;29.10;;;;;;6232222;23;20020;-88
2021/05/09 10:29:39;;;;;;;2.63;0.68;;;30.90;28.70;;;;;;6223511;23;20021;-90
2021/05/09 10:32:29;;;;;;;0.82;0.50;;;31.40;28.80;;;;;;6218801;23;20051;-86
2021/05/09 10:34:57;;;;;;;3.03;0.93;;;31.20;29.00;;;;;;6216591;23;20021;-89
2021/05/09 10:40:31;;;;;;;2.08;0.68;;;31.40;28.80;;;;;;6217431;23;20020;-89
2021/05/09 10:43:03;;;;;;;1.65;0.75;;;31.30;28.20;;;;;;6218927;23;20021;-89
2021/05/09 10:45:35;;;;;;;0.93;0.52;;;31.60;28.40;;;;;;6216918;23;20328;-88
2021/05/09 10:48:18;;;;;;;2.47;0.65;;;31.30;27.70;;;;;;6217433;23;20024;-90
2021/05/09 10:50:56;;;;;;;2.42;0.80;;;31.10;28.90;;;;;;6217354;23;20025;-89
2021/05/09 10:53:37;;;;;;;2.63;0.70;;;31.40;29.10;;;;;;6219093;23;20025;-89
2021/05/09 10:56:13;;;;;;;0.90;0.60;;;31.60;28.10;;;;;;6220501;23;20052;-89
2021/05/09 10:58:46;;;;;;;0.65;0.65;;;31.00;28.60;;;;;;6222006;23;20268;-87
2021/05/09 11:01:13;;;;;;;1.42;0.60;;;30.50;28.40;;;;;;6216826;23;20107;-89
2021/05/09 11:03:42;;;;;;;2.70;0.63;;;30.50;28.00;;;;;;6217486;23;20079;-88
2021/05/09 11:06:25;;;;;;;3.17;0.90;;;31.10;28.10;;;;;;6216568;23;20052;-89
2021/05/09 11:08:56;;;;;;;0.73;0.50;;;31.70;28.50;;;;;;6218405;23;20029;-88
2021/05/09 11:11:27;;;;;;;0.55;0.45;;;32.00;27.50;;;;;;6216872;23;20099;-88
2021/05/09 11:14:03;;;;;;;2.50;0.73;;;31.50;28.00;;;;;;6216856;23;20056;-88
2021/05/09 11:16:37;;;;;;;0.77;0.50;;;31.70;28.90;;;;;;6215715;23;20091;-88
2021/05/09 11:19:17;;;;;;;1.80;0.70;;;32.30;26.60;;;;;;6217453;23;20017;-89
2021/05/09 11:21:55;;;;;;;1.67;0.70;;;32.50;28.30;;;;;;6217944;23;20017;-88
2021/05/09 11:24:25;;;;;;;0.75;0.57;;;32.70;28.10;;;;;;6217155;23;20493;-87
2021/05/09 11:26:57;;;;;;;1.38;0.70;;;33.50;26.70;;;;;;6218040;23;20111;-88
2021/05/09 11:29:28;;;;;;;1.10;0.70;;;33.60;26.50;;;;;;6215820;23;20369;-89
2021/05/09 11:32:06;;;;;;;2.05;0.90;;;33.90;25.40;;;;;;6218201;23;20017;-90
2021/05/09 11:34:37;;;;;;;0.85;0.57;;;33.60;26.50;;;;;;6217277;23;20032;-88
2021/05/09 11:37:06;;;;;;;1.92;1.10;;;32.90;26.50;;;;;;6218051;23;20031;-88
2021/05/09 11:39:35;;;;;;;2.10;0.90;;;32.70;27.70;;;;;;6217541;23;20373;-89
2021/05/09 11:42:02;;;;;;;1.70;0.63;;;32.40;26.90;;;;;;6217569;23;20083;-89
2021/05/09 11:44:29;;;;;;;2.00;1.33;;;32.20;26.00;;;;;;6222287;23;20021;-88
2021/05/09 11:46:57;;;;;;;1.33;0.70;;;32.10;27.20;;;;;;6226130;23;20024;-87
2021/05/09 11:49:26;;;;;;;1.77;0.55;;;32.10;26.80;;;;;;6241447;23;20032;-87
2021/05/09 11:52:05;;;;;;;1.83;0.70;;;32.30;26.20;;;;;;6239231;23;20058;-87
2021/05/09 11:54:37;;;;;;;0.50;0.50;;;32.50;26.10;;;;;;6230555;23;20070;-87
2021/05/09 11:57:05;;;;;;;2.00;0.90;;;32.70;26.10;;;;;;6226682;23;20024;-89
2021/05/09 11:59:34;;;;;;;0.82;0.60;;;32.60;26.00;;;;;;6217741;23;20036;-88
2021/05/09 12:02:05;;;;;;;1.00;0.50;;;32.10;27.10;;;;;;6217550;23;20017;-88
2021/05/09 12:04:32;;;;;;;1.75;0.90;;;31.80;27.10;;;;;;6218666;23;20021;-88
2021/05/09 12:07:02;;;;;;;1.30;0.75;;;32.10;27.80;;;;;;6217664;23;20082;-89
2021/05/09 12:09:34;;;;;;;2.05;0.60;;;32.30;26.80;;;;;;6216816;23;20091;-87
2021/05/09 12:12:02;;;;;;;2.40;0.93;;;32.10;27.40;;;;;;6217468;23;20456;-87
2021/05/09 12:14:31;;;;;;;0.73;0.50;;;32.20;27.80;;;;;;6217527;23;20021;-89
2021/05/09 12:17:00;;;;;;;2.40;0.75;;;32.10;26.70;;;;;;6216758;23;20381;-89
2021/05/09 12:19:31;;;;;;;3.17;0.75;;;32.30;27.40;;;;;;6217601;23;20055;-88
2021/05/09 12:22:00;;;;;;;2.30;1.25;;;33.50;25.50;;;;;;6217606;23;20032;-88
2021/05/09 12:24:29;;;;;;;2.05;0.50;;;33.70;25.70;;;;;;6216737;23;20078;-89
2021/05/09 12:27:05;;;;;;;3.15;0.52;;;33.10;25.20;;;;;;6218343;23;20360;-89
2021/05/09 12:29:43;;;;;;;2.67;0.60;;;33.10;25.70;;;;;;6216477;23;20052;-89
2021/05/09 12:32:25;;;;;;;1.58;0.77;;;33.50;25.30;;;;;;6216083;23;20104;-88
2021/05/09 12:35:07;;;;;;;2.78;0.68;;;34.00;26.30;;;;;;6217828;23;20021;-89
2021/05/09 12:37:53;;;;;;;2.38;0.75;;;33.60;26.50;;;;;;6217262;23;20068;-87
2021/05/09 12:40:24;;;;;;;3.30;0.60;;;33.00;25.90;;;;;;6215623;23;20021;-90
2021/05/09 12:43:03;;;;;;;1.65;0.68;;;33.00;26.80;;;;;;6217521;23;20393;-89
2021/05/09 12:45:52;;;;;;;2.03;0.70;;;33.50;26.30;;;;;;6215934;23;20021;-89
2021/05/09 12:48:28;;;;;;;1.77;0.63;;;33.40;25.30;;;;;;6216589;23;20024;-88
2021/05/09 12:51:14;;;;;;;0.65;0.57;;;33.60;25.50;;;;;;6217516;23;20099;-87
2021/05/09 12:53:48;;;;;;;2.63;0.68;;;33.40;24.90;;;;;;6217906;23;20028;-88
2021/05/09 12:56:30;;;;;;;1.80;0.80;;;33.30;24.90;;;;;;6216973;23;20056;-90
2021/05/09 12:59:10;;;;;;;1.10;0.68;;;34.00;25.00;;;;;;6217299;23;20389;-89
2021/05/09 13:01:41;;;;;;;1.33;0.60;;;34.40;25.20;;;;;;6216645;23;20367;-88
2021/05/09 13:04:35;;;;;;;0.93;0.55;;;34.70;25.20;;;;;;6217119;23;20385;-89
2021/05/09 13:07:07;;;;;;;2.00;0.60;;;35.10;25.20;;;;;;6216224;23;20024;-86
2021/05/09 13:09:35;;;;;;;2.38;0.50;;;35.70;24.10;;;;;;6215547;23;20020;-90
2021/05/09 13:12:03;;;;;;;1.98;0.50;;;35.60;24.00;;;;;;6214856;23;20025;-89
2021/05/09 13:14:44;;;;;;;0.65;0.57;;;35.60;23.70;;;;;;6216254;23;20403;-87
2021/05/09 13:17:11;;;;;;;3.50;0.67;;;36.30;23.80;;;;;;6217382;23;20016;-89
2021/05/09 13:19:39;;;;;;;2.88;0.70;;;36.80;23.70;;;;;;6217192;23;20031;-90
2021/05/09 13:22:07;;;;;;;0.57;0.50;;;36.00;23.50;;;;;;6217720;23;20035;-89
2021/05/09 13:24:34;;;;;;;1.35;0.70;;;34.80;24.20;;;;;;6217193;23;20036;-88
2021/05/09 13:27:02;;;;;;;1.73;0.77;;;34.30;24.60;;;;;;6215896;23;20044;-88
2021/05/09 13:29:29;;;;;;;2.92;0.70;;;33.80;25.00;;;;;;6217375;23;20024;-89
2021/05/09 13:31:56;;;;;;;2.75;0.60;;;34.50;24.80;;;;;;6216992;23;20028;-89
2021/05/09 13:34:24;;;;;;;0.77;0.65;;;34.50;24.50;;;;;;6216843;23;20048;-88
2021/05/09 13:36:51;;;;;;;2.58;1.23;;;34.70;24.30;;;;;;6215885;23;20407;-88
2021/05/09 13:39:18;;;;;;;3.53;1.55;;;34.60;24.40;;;;;;6214599;23;20020;-89
2021/05/09 13:41:48;;;;;;;13.27;4.25;;;35.00;25.10;;;;;;6217414;23;20027;-89
2021/05/09 13:44:15;;;;;;;4.10;1.60;;;35.80;24.40;;;;;;6217668;23;20046;-89
2021/05/09 13:46:41;;;;;;;3.30;0.60;;;35.80;23.90;;;;;;6226975;23;20020;-87
2021/05/09 13:49:09;;;;;;;1.83;0.70;;;35.30;23.50;;;;;;6231436;23;20118;-87
2021/05/09 13:51:38;;;;;;;1.77;0.85;;;35.20;24.80;;;;;;6230696;23;20072;-87
2021/05/09 13:54:04;;;;;;;2.03;1.08;;;35.50;23.70;;;;;;6236171;23;20016;-87
2021/05/09 13:56:33;;;;;;;3.40;0.70;;;35.30;24.30;;;;;;6234795;23;20056;-88
2021/05/09 13:58:59;;;;;;;1.90;0.80;;;35.10;24.00;;;;;;6235768;23;20029;-90
2021/05/09 14:01:26;;;;;;;1.23;0.70;;;34.30;24.30;;;;;;6231773;23;20436;-89
2021/05/09 14:03:52;;;;;;;4.57;0.60;;;34.20;24.40;;;;;;6223910;23;20083;-89
2021/05/09 14:06:18;;;;;;;0.40;0.30;;;34.30;24.60;;;;;;6217182;23;20087;-89
2021/05/09 14:08:45;;;;;;;1.65;0.98;;;34.90;23.60;;;;;;6216729;23;20092;-89
2021/05/09 14:11:12;;;;;;;2.55;0.70;;;35.20;24.00;;;;;;6216750;23;20032;-88
2021/05/09 14:13:39;;;;;;;1.50;0.75;;;35.60;23.00;;;;;;6216861;23;20024;-88
2021/05/09 14:16:07;;;;;;;2.20;1.98;;;35.70;23.50;;;;;;6216893;23;20031;-89
2021/05/09 14:18:33;;;;;;;7.75;6.30;;;35.60;22.90;;;;;;6216488;23;20020;-89
2021/05/09 14:21:00;;;;;;;5.53;4.00;;;35.70;23.80;;;;;;6216621;23;20751;-85
2021/05/09 14:23:27;;;;;;;2.83;0.80;;;35.60;24.10;;;;;;6216149;23;20079;-87
2021/05/09 14:25:53;;;;;;;2.22;0.40;;;35.80;24.80;;;;;;6215645;23;20078;-87
2021/05/09 14:28:19;;;;;;;1.60;0.70;;;36.40;23.30;;;;;;6216428;23;20021;-86
2021/05/09 14:30:46;;;;;;;3.03;0.73;;;37.10;22.40;;;;;;6216834;23;20024;-88
2021/05/09 14:33:12;;;;;;;1.92;0.63;;;37.50;23.10;;;;;;6217035;23;20111;-87
2021/05/09 14:35:39;;;;;;;2.30;0.70;;;37.90;21.60;;;;;;6216375;23;20024;-87
2021/05/09 14:38:06;;;;;;;1.63;0.70;;;37.80;22.20;;;;;;6216472;23;20083;-87
2021/05/09 14:40:33;;;;;;;4.00;0.68;;;37.70;22.40;;;;;;6215521;23;20032;-86
2021/05/09 14:42:59;;;;;;;0.77;0.55;;;37.60;22.20;;;;;;6217758;23;20017;-89
2021/05/09 14:45:26;;;;;;;1.00;0.50;;;36.30;21.90;;;;;;6216167;23;20025;-86
2021/05/09 14:47:54;;;;;;;2.28;0.50;;;35.10;23.20;;;;;;6217645;23;20025;-89
2021/05/09 14:50:20;;;;;;;0.70;0.65;;;34.10;25.00;;;;;;6226968;23;20061;-89
2021/05/09 14:52:47;;;;;;;1.20;0.57;;;33.80;24.60;;;;;;6226614;23;20021;-87
2021/05/09 14:55:14;;;;;;;1.67;0.57;;;33.80;25.60;;;;;;6220149;23;20094;-88
2021/05/09 14:57:42;;;;;;;2.03;0.50;;;33.50;26.00;;;;;;6225372;23;20024;-87
2021/05/09 15:00:11;;;;;;;2.90;0.70;;;33.20;25.30;;;;;;6218239;23;20126;-87
2021/05/09 15:02:38;;;;;;;1.73;0.70;;;32.80;26.00;;;;;;6218015;23;20419;-89
2021/05/09 15:05:07;;;;;;;0.98;0.70;;;33.00;26.70;;;;;;6219111;23;20025;-86
2021/05/09 15:07:34;;;;;;;2.60;0.80;;;33.90;25.50;;;;;;6217198;23;20285;-88
2021/05/09 15:10:00;;;;;;;1.17;1.00;;;34.20;24.40;;;;;;6215949;23;20021;-89
2021/05/09 15:12:27;;;;;;;2.28;1.25;;;34.20;24.90;;;;;;6216503;23;20419;-87
2021/05/09 15:14:57;;;;;;;1.48;0.90;;;34.40;25.30;;;;;;6216796;23;20016;-86
2021/05/09 15:17:24;;;;;;;2.33;2.00;;;34.50;24.70;;;;;;6214785;23;20408;-90
2021/05/09 15:19:52;;;;;;;1.42;0.73;;;34.50;24.90;;;;;;6218136;23;20012;-89
2021/05/09 15:22:19;;;;;;;1.67;0.60;;;34.20;24.60;;;;;;6221998;23;20079;-88
2021/05/09 15:24:46;;;;;;;1.27;0.70;;;34.00;24.70;;;;;;6229775;23;20021;-87
2021/05/09 15:27:12;;;;;;;1.00;0.60;;;33.30;25.20;;;;;;6241834;23;20004;-89
2021/05/09 15:29:39;;;;;;;0.95;0.82;;;33.00;26.00;;;;;;6238138;23;20055;-87
2021/05/09 15:32:06;;;;;;;1.58;0.82;;;33.30;24.70;;;;;;6230697;23;20039;-86
2021/05/09 15:34:36;;;;;;;2.22;0.82;;;33.00;25.20;;;;;;6219875;23;20046;-87
2021/05/09 15:37:04;;;;;;;3.38;1.48;;;32.70;25.70;;;;;;6218885;23;20021;-88
2021/05/09 15:39:32;;;;;;;0.70;0.47;;;32.70;25.60;;;;;;6217784;23;20040;-88
2021/05/09 15:42:00;;;;;;;2.95;0.70;;;32.90;26.00;;;;;;6220460;23;20016;-87
2021/05/09 15:44:33;;;;;;;0.60;0.60;;;33.00;25.80;;;;;;6217812;23;20024;-88
2021/05/09 15:47:01;;;;;;;1.65;0.65;;;33.50;24.90;;;;;;6217355;23;20024;-89
2021/05/09 15:49:30;;;;;;;1.42;0.90;;;33.40;24.20;;;;;;6218084;23;20083;-87
2021/05/09 15:52:00;;;;;;;3.33;0.60;;;33.30;25.40;;;;;;6218236;23;20332;-89
2021/05/09 15:54:29;;;;;;;3.00;0.75;;;33.40;25.30;;;;;;6218558;23;20046;-89
2021/05/09 15:56:57;;;;;;;2.05;0.77;;;33.00;25.40;;;;;;6220472;23;20400;-84
2021/05/09 15:59:24;;;;;;;1.73;0.68;;;33.20;24.50;;;;;;6223829;23;20167;-87
2021/05/09 16:01:50;;;;;;;2.15;0.57;;;33.30;24.60;;;;;;6224307;23;20017;-86
2021/05/09 16:04:17;;;;;;;1.73;1.00;;;32.60;25.00;;;;;;6224385;23;20016;-87
2021/05/09 16:06:44;;;;;;;1.15;0.63;;;32.30;25.60;;;;;;6217813;23;20025;-87
2021/05/09 16:09:11;;;;;;;2.25;0.77;;;32.30;24.40;;;;;;6217436;23;20075;-86
2021/05/09 16:11:37;;;;;;;2.58;0.80;;;32.30;24.60;;;;;;6216319;23;20024;-86
2021/05/09 16:14:05;;;;;;;1.20;0.93;;;32.20;25.00;;;;;;6216647;23;20025;-87
2021/05/09 16:16:33;;;;;;;0.70;0.70;;;32.00;25.20;;;;;;6218337;23;20154;-87
2021/05/09 16:19:01;;;;;;;4.18;0.90;;;31.30;25.60;;;;;;6217000;23;20020;-86
2021/05/09 16:21:28;;;;;;;4.18;0.90;;;30.80;26.60;;;;;;6217647;23;20021;-90
2021/05/09 16:23:55;;;;;;;4.30;1.55;;;30.50;26.90;;;;;;6215477;23;20368;-86
2021/05/09 16:26:21;;;;;;;3.50;1.77;;;30.10;25.90;;;;;;6216603;23;20017;-85
2021/05/09 16:28:48;;;;;;;6.32;2.40;;;30.00;27.40;;;;;;6216628;23;20394;-87
2021/05/09 16:31:15;;;;;;;1.58;1.00;;;29.80;27.10;;;;;;6216678;23;20024;-86
2021/05/09 16:33:42;;;;;;;1.98;1.00;;;29.60;26.80;;;;;;6215831;23;20025;-87
2021/05/09 16:36:11;;;;;;;1.25;0.85;;;29.40;27.20;;;;;;6191011;23;20020;-87
2021/05/09 16:38:38;;;;;;;2.88;1.20;;;29.30;27.00;;;;;;6216581;23;20020;-90
2021/05/09 16:41:04;;;;;;;1.65;1.05;;;29.30;27.40;;;;;;6216852;23;20021;-86
2021/05/09 16:43:34;;;;;;;1.15;0.77;;;29.30;27.80;;;;;;6216143;23;20020;-88
2021/05/09 16:46:01;;;;;;;1.65;0.80;;;29.20;27.70;;;;;;6215938;23;20017;-86
2021/05/09 16:48:28;;;;;;;1.13;0.57;;;29.00;28.40;;;;;;6215958;23;20416;-86
2021/05/09 16:50:55;;;;;;;8.52;6.03;;;28.90;27.50;;;;;;6216138;23;20486;-87
2021/05/09 16:56:06;;;;;;;0.88;0.77;;;28.40;28.10;;;;;;6217089;23;20036;-87
2021/05/09 16:58:35;;;;;;;1.83;0.82;;;28.00;29.10;;;;;;6216487;23;20044;-88
2021/05/09 17:01:02;;;;;;;2.65;0.73;;;27.80;29.70;;;;;;6215444;23;20079;-87
2021/05/09 17:03:29;;;;;;;3.45;0.50;;;27.70;31.00;;;;;;6217125;23;20044;-87
2021/05/09 17:05:56;;;;;;;0.50;0.50;;;27.50;30.40;;;;;;6216955;23;20368;-85
2021/05/09 17:08:22;;;;;;;3.70;0.68;;;27.30;30.90;;;;;;6217763;23;20020;-88
2021/05/09 17:10:49;;;;;;;0.82;0.60;;;27.10;31.40;;;;;;6217171;23;20028;-87
2021/05/09 17:13:27;;;;;;;2.60;0.70;;;27.00;32.30;;;;;;6217713;23;20098;-87
2021/05/09 17:15:54;;;;;;;1.30;0.77;;;26.90;31.90;;;;;;6219638;23;20069;-86
2021/05/09 17:18:21;;;;;;;2.42;0.60;;;26.70;32.90;;;;;;6216883;23;20067;-86
2021/05/09 17:20:48;;;;;;;0.70;0.70;;;26.70;32.10;;;;;;6217554;23;20036;-87
2021/05/09 17:23:15;;;;;;;1.13;0.75;;;26.70;32.80;;;;;;6220617;23;20037;-86
2021/05/09 17:25:42;;;;;;;1.15;0.60;;;26.60;33.30;;;;;;6217804;23;20343;-87
2021/05/09 17:28:08;;;;;;;1.20;0.82;;;26.50;33.40;;;;;;6230659;23;20067;-87
2021/05/09 17:30:35;;;;;;;0.88;0.80;;;26.40;33.00;;;;;;6231299;23;20028;-86
2021/05/09 17:33:01;;;;;;;1.20;0.60;;;26.30;33.00;;;;;;6231774;23;20036;-86
2021/05/09 17:35:28;;;;;;;0.90;0.60;;;26.30;32.80;;;;;;6235772;23;20088;-87
2021/05/09 17:37:55;;;;;;;1.17;0.80;;;26.20;33.10;;;;;;6235382;23;20024;-88
2021/05/09 17:40:22;;;;;;;1.38;0.90;;;26.10;34.00;;;;;;6235443;23;20090;-89
2021/05/09 17:42:48;;;;;;;4.10;1.65;;;26.00;34.50;;;;;;6231227;23;20025;-86
2021/05/09 17:45:16;;;;;;;2.75;1.52;;;25.90;35.60;;;;;;6220091;23;20036;-88
2021/05/09 17:47:42;;;;;;;3.03;1.92;;;25.80;35.90;;;;;;6219522;23;20059;-88
2021/05/09 17:50:10;;;;;;;4.78;1.40;;;25.60;36.70;;;;;;6217807;23;20029;-88
2021/05/09 17:52:38;;;;;;;1.92;1.02;;;25.50;36.80;;;;;;6217529;23;20020;-88
2021/05/09 17:55:08;;;;;;;2.22;0.90;;;25.40;37.20;;;;;;6216604;23;20029;-88
2021/05/09 17:57:35;;;;;;;0.90;0.73;;;25.20;36.90;;;;;;6215555;23;20024;-87
2021/05/09 18:00:11;;;;;;;3.17;1.00;;;25.20;37.70;;;;;;6216201;23;20027;-87
2021/05/09 18:02:37;;;;;;;2.25;0.90;;;25.10;37.60;;;;;;6217243;23;20277;-87
2021/05/09 18:05:05;;;;;;;1.13;0.70;;;25.10;37.90;;;;;;6218773;23;20051;-87
2021/05/09 18:07:34;;;;;;;1.85;1.10;;;25.00;37.80;;;;;;6218334;23;20462;-87
2021/05/09 18:10:07;;;;;;;2.35;0.88;;;24.90;38.10;;;;;;6217772;23;20029;-87